KSVE/SVE METAR and TAF weather

Enter ICAO airport designator
Station Type Date Time Source
KSVE METAR 2021/05/12 04:35 UTC NOAA

KSVE 120435Z AUTO 00000KT 10SM CLR 13/M05 A3007 RMK AO2


Station Type Date Time Source
KSVE Decoded METAR 2021/05/12 04:35 UTC NOAA

Susanville Municipal, CA, United States (KSVE) 40-23N 120-34W
May 12, 2021 - 12:35 AM EDT / 2021.05.12 0435 UTC
Wind: Calm:0
Visibility: 10 mile(s):0
Sky conditions: clear
Temperature: 55 F (13 C)
Dew Point: 23 F (-5 C)
Relative Humidity: 28%
Pressure (altimeter): 30.07 in. Hg (1018 hPa)
ob: KSVE 120435Z AUTO 00000KT 10SM CLR 13/M05 A3007 RMK AO2
cycle: 4

Station Type Date Time Source
KSVE TAF UTC NOAA

Error!

Example: see airport list